createdAt,value
2022-12-24T00:00:46.612Z,100413.47
2022-12-24T00:05:48.108Z,100406.59
2022-12-24T00:10:53.589Z,100425.50
2022-12-24T00:15:55.121Z,100422.94
2022-12-24T00:20:56.610Z,100419.47
2022-12-24T00:25:58.148Z,100420.34
2022-12-24T00:30:59.679Z,100428.94
2022-12-24T00:36:01.147Z,100426.34
2022-12-24T00:41:04.476Z,100422.09
2022-12-24T00:46:06.000Z,100420.34
2022-12-24T00:51:07.555Z,100428.94
2022-12-24T00:56:09.745Z,100429.78
2022-12-24T01:01:12.043Z,100435.81
2022-12-24T01:06:16.666Z,100422.06
2022-12-24T01:11:18.076Z,100422.94
2022-12-24T01:16:20.833Z,100426.38
2022-12-24T01:21:22.374Z,100428.94
2022-12-24T01:26:23.860Z,100428.94
2022-12-24T01:31:25.382Z,100429.78
2022-12-24T01:36:26.862Z,100452.13
2022-12-24T01:41:49.372Z,100455.56
2022-12-24T01:46:54.962Z,100467.59
2022-12-24T01:52:04.897Z,100462.44
2022-12-24T01:57:24.196Z,100465.00
2022-12-24T02:02:27.212Z,100460.72
2022-12-24T02:07:29.347Z,100464.13
2022-12-24T02:12:35.156Z,100473.59
2022-12-24T02:18:01.632Z,100477.88
2022-12-24T02:23:18.454Z,100483.03
2022-12-24T02:28:32.087Z,100480.44
2022-12-24T02:33:50.489Z,100482.16
2022-12-24T02:39:04.081Z,100486.47
2022-12-24T02:44:05.581Z,100492.47
2022-12-24T02:49:07.198Z,100488.19
2022-12-24T02:54:08.672Z,100502.78
2022-12-24T02:59:34.434Z,100508.78
2022-12-24T03:04:48.240Z,100496.78
2022-12-24T03:10:17.839Z,100500.22
2022-12-24T03:15:21.839Z,100513.09
2022-12-24T03:20:31.154Z,100516.53
2022-12-24T03:25:34.176Z,100519.13
2022-12-24T03:30:38.837Z,100534.56
2022-12-24T03:35:40.227Z,100533.72
2022-12-24T03:40:41.814Z,100531.13
2022-12-24T03:45:43.361Z,100535.44
2022-12-24T03:50:44.858Z,100538.84
2022-12-24T03:55:47.250Z,100539.75
2022-12-24T04:00:48.754Z,100541.44
2022-12-24T04:06:07.598Z,100544.91
2022-12-24T04:11:11.201Z,100550.91
2022-12-24T04:16:15.714Z,100545.75
2022-12-24T04:21:17.279Z,100545.75
2022-12-24T04:26:18.785Z,100558.66
2022-12-24T04:31:20.324Z,100555.22
2022-12-24T04:36:23.287Z,100554.34
2022-12-24T04:41:25.228Z,100551.78
2022-12-24T04:46:31.895Z,100562.09
2022-12-24T04:51:33.515Z,100576.72
2022-12-24T04:56:35.024Z,100585.28
2022-12-24T05:01:36.748Z,100583.59
2022-12-24T05:06:38.403Z,100574.13
2022-12-24T05:11:39.927Z,100578.41
2022-12-24T05:16:41.423Z,100587.03
2022-12-24T05:21:42.906Z,100585.28
2022-12-24T05:26:54.766Z,100589.59
2022-12-24T05:31:56.254Z,100597.34
2022-12-24T05:36:57.681Z,100596.47
2022-12-24T05:41:59.157Z,100601.63
2022-12-24T05:47:00.642Z,100595.63
2022-12-24T05:52:02.071Z,100595.59
2022-12-24T05:57:03.554Z,100604.19
2022-12-24T06:02:05.188Z,100598.19
2022-12-24T06:07:06.706Z,100611.06
2022-12-24T06:12:08.275Z,100609.34
2022-12-24T06:17:09.762Z,100615.38
2022-12-24T06:22:11.220Z,100613.66
2022-12-24T06:27:12.634Z,100616.22
2022-12-24T06:32:14.123Z,100623.09
2022-12-24T06:37:18.405Z,100632.56
2022-12-24T06:42:19.848Z,100630.84
2022-12-24T06:47:21.339Z,100633.44
2022-12-24T06:52:22.846Z,100634.28
2022-12-24T06:57:24.304Z,100641.16
2022-12-24T07:02:26.429Z,100648.88
2022-12-24T07:07:28.022Z,100661.75
2022-12-24T07:12:29.679Z,100660.06
2022-12-24T07:17:31.127Z,100665.22
2022-12-24T07:22:32.711Z,100674.69
2022-12-24T07:27:34.165Z,100670.38
2022-12-24T07:32:35.602Z,100676.38
2022-12-24T07:37:37.229Z,100679.84
2022-12-24T07:42:38.679Z,100694.44
2022-12-24T07:47:40.190Z,100690.16
2022-12-24T07:52:41.629Z,100695.31
2022-12-24T07:57:43.019Z,100701.31
2022-12-24T08:02:44.839Z,100699.63
2022-12-24T08:07:46.463Z,100707.34
2022-12-24T08:12:48.348Z,100726.25
2022-12-24T08:17:49.925Z,100728.84
2022-12-24T08:22:52.395Z,100730.59
2022-12-24T08:27:53.889Z,100736.59
2022-12-24T08:32:55.325Z,100746.06
2022-12-24T08:37:56.924Z,100746.94
2022-12-24T08:42:58.422Z,100751.28
2022-12-24T08:48:00.492Z,100739.22
2022-12-24T08:53:02.124Z,100741.81
2022-12-24T08:58:03.636Z,100750.41
2022-12-24T09:03:05.228Z,100738.38
2022-12-24T09:08:06.771Z,100743.53
2022-12-24T09:13:08.175Z,100742.69
2022-12-24T09:18:10.590Z,100755.59
2022-12-24T09:23:12.138Z,100764.19
2022-12-24T09:28:13.559Z,100763.34
2022-12-24T09:33:15.125Z,100761.63
2022-12-24T09:38:16.641Z,100764.22
2022-12-24T09:43:20.362Z,100780.56
2022-12-24T09:48:27.983Z,100799.50
2022-12-24T09:53:57.156Z,100804.69
2022-12-24T09:59:01.386Z,100801.22
2022-12-24T10:04:27.307Z,100805.53
2022-12-24T10:09:51.029Z,100812.41
2022-12-24T10:14:59.234Z,100813.28
2022-12-24T10:20:29.185Z,100824.47
2022-12-24T10:25:33.932Z,100827.06
2022-12-24T10:30:35.842Z,100826.19
2022-12-24T10:35:45.116Z,100832.25
2022-12-24T10:40:50.208Z,100828.78
2022-12-24T10:45:56.966Z,100827.94
2022-12-24T10:51:04.059Z,100832.22
2022-12-24T10:56:09.274Z,100833.94
2022-12-24T11:01:10.923Z,100841.69
2022-12-24T11:06:21.222Z,100841.69
2022-12-24T11:11:23.451Z,100838.25
2022-12-24T11:16:32.121Z,100833.94
2022-12-24T11:21:40.101Z,100838.22
2022-12-24T11:26:44.488Z,100836.50
2022-12-24T11:31:47.321Z,100824.44
2022-12-24T11:36:50.928Z,100820.16
2022-12-24T11:41:54.141Z,100818.41
2022-12-24T11:46:59.174Z,100817.56
2022-12-24T11:52:09.883Z,100817.56
2022-12-24T11:57:15.874Z,100815.81
2022-12-24T12:02:35.056Z,100813.25
2022-12-24T12:07:38.631Z,100823.59
2022-12-24T12:12:47.091Z,100828.75
2022-12-24T12:17:57.486Z,100839.94
2022-12-24T12:23:15.187Z,100845.13
2022-12-24T12:28:27.011Z,100830.47
2022-12-24T12:33:38.847Z,100833.91
2022-12-24T12:38:40.731Z,100831.28
2022-12-24T12:44:13.924Z,100837.34
2022-12-24T12:49:34.145Z,100837.34
2022-12-24T12:55:11.111Z,100832.19
2022-12-24T13:00:17.244Z,100843.38
2022-12-24T13:05:36.827Z,100847.69
2022-12-24T13:10:54.192Z,100858.00
2022-12-24T13:16:23.752Z,100861.47
2022-12-24T13:21:29.833Z,100868.38
2022-12-24T13:26:31.352Z,100871.81
2022-12-24T13:31:32.862Z,100887.31
2022-12-24T13:37:16.546Z,100890.78
2022-12-24T13:42:50.169Z,100884.72
2022-12-24T13:47:51.643Z,100889.06
2022-12-24T13:52:54.247Z,100887.31
2022-12-24T13:58:05.363Z,100889.91
2022-12-24T14:03:09.775Z,100911.47
2022-12-24T14:08:34.681Z,100913.16
2022-12-24T14:13:39.248Z,100916.63
2022-12-24T14:18:42.218Z,100923.50
2022-12-24T14:23:56.210Z,100920.94
2022-12-24T14:29:03.102Z,100926.97
2022-12-24T14:34:12.274Z,100927.84
2022-12-24T14:39:31.013Z,100939.91
2022-12-24T14:44:44.219Z,100938.16
2022-12-24T14:50:11.191Z,100932.97
2022-12-24T14:55:37.977Z,100944.19
2022-12-24T15:00:42.790Z,100947.66
2022-12-24T15:05:45.818Z,100940.75
2022-12-24T15:10:52.291Z,100952.81
2022-12-24T15:15:55.431Z,100957.97
2022-12-24T15:21:04.335Z,100964.88
2022-12-24T15:26:18.827Z,100970.03
2022-12-24T15:31:24.926Z,100969.19
2022-12-24T15:36:31.390Z,100976.09
2022-12-24T15:42:01.436Z,100971.75
2022-12-24T15:47:05.988Z,100976.97
2022-12-24T15:52:19.538Z,100981.25
2022-12-24T15:57:29.558Z,100979.53
2022-12-24T16:02:43.122Z,100995.91
2022-12-24T16:08:08.716Z,100994.19
2022-12-24T16:13:28.144Z,100994.19
2022-12-24T16:18:39.088Z,101003.66
2022-12-24T16:23:50.838Z,101003.69
2022-12-24T16:28:52.334Z,101007.97
2022-12-24T16:33:57.194Z,101010.56
2022-12-24T16:39:18.179Z,101031.25
2022-12-24T16:44:19.838Z,101022.63
2022-12-24T16:49:22.701Z,101030.41
2022-12-24T16:54:24.200Z,101021.78
2022-12-24T16:59:25.657Z,101031.25
2022-12-24T17:04:27.070Z,101042.44
2022-12-24T17:09:28.523Z,101043.34
2022-12-24T17:14:30.098Z,101044.19
2022-12-24T17:19:31.929Z,101045.91
2022-12-24T17:24:33.465Z,101042.47
2022-12-24T17:29:35.020Z,101043.31
2022-12-24T17:34:36.650Z,101046.78
2022-12-24T17:39:38.177Z,101053.69
2022-12-24T17:44:39.661Z,101053.69
2022-12-24T17:49:41.138Z,101060.56
2022-12-24T17:54:42.612Z,101064.88
2022-12-24T17:59:44.243Z,101061.44
2022-12-24T18:04:45.700Z,101057.97
2022-12-24T18:09:47.138Z,101072.63
2022-12-24T18:14:48.550Z,101075.22
2022-12-24T18:19:50.104Z,101086.44
2022-12-24T18:24:51.552Z,101079.47
2022-12-24T18:29:53.039Z,101084.69
2022-12-24T18:34:54.502Z,101081.19
2022-12-24T18:39:55.946Z,101082.94
2022-12-24T18:44:57.406Z,101094.13
2022-12-24T18:49:58.905Z,101095.88
2022-12-24T18:55:00.369Z,101094.97
2022-12-24T19:00:01.872Z,101103.59
2022-12-24T19:05:03.492Z,101113.88
2022-12-24T19:10:05.464Z,101113.84
2022-12-24T19:15:07.398Z,101121.59
2022-12-24T19:20:10.387Z,101121.53
2022-12-24T19:25:11.982Z,101135.31
2022-12-24T19:30:14.611Z,101124.94
2022-12-24T19:35:16.581Z,101130.09
2022-12-24T19:40:18.134Z,101135.28
2022-12-24T19:45:20.733Z,101132.69
2022-12-24T19:50:22.290Z,101135.31
2022-12-24T19:55:23.831Z,101142.25
2022-12-24T20:00:25.491Z,101137.06
2022-12-24T20:05:26.980Z,101146.63
2022-12-24T20:10:28.454Z,101143.19
2022-12-24T20:15:29.888Z,101145.81
2022-12-24T20:20:31.378Z,101151.03
2022-12-24T20:25:37.550Z,101158.84
2022-12-24T20:30:40.286Z,101174.41
2022-12-24T20:35:41.830Z,101178.72
2022-12-24T20:40:45.266Z,101185.66
2022-12-24T20:45:51.054Z,101193.41
2022-12-24T20:50:52.762Z,101194.28
2022-12-24T20:55:54.836Z,101208.97
2022-12-24T21:00:56.368Z,101209.84
2022-12-24T21:05:57.851Z,101223.63
2022-12-24T21:11:18.142Z,101229.66
2022-12-24T21:16:19.660Z,101228.84
2022-12-24T21:21:21.670Z,101232.25
2022-12-24T21:26:23.478Z,101223.63
2022-12-24T21:31:25.056Z,101227.13
2022-12-24T21:36:26.910Z,101240.91
2022-12-24T21:41:29.026Z,101241.78
2022-12-24T21:46:30.817Z,101236.59
2022-12-24T21:51:33.100Z,101246.09
2022-12-24T21:56:54.660Z,101243.50
2022-12-24T22:01:57.059Z,101248.69
2022-12-24T22:07:17.790Z,101259.91
2022-12-24T22:12:19.854Z,101269.44
2022-12-24T22:17:25.450Z,101278.91
2022-12-24T22:22:27.451Z,101276.34
2022-12-24T22:27:28.941Z,101278.91
2022-12-24T22:32:30.405Z,101284.09
2022-12-24T22:37:31.879Z,101279.78
2022-12-24T22:42:34.090Z,101289.25
2022-12-24T22:47:35.580Z,101289.25
2022-12-24T22:52:37.033Z,101274.56
2022-12-24T22:57:38.518Z,101274.53
2022-12-24T23:02:40.152Z,101280.59
2022-12-24T23:07:41.705Z,101280.59
2022-12-24T23:13:01.951Z,101271.94
2022-12-24T23:18:03.817Z,101275.41
2022-12-24T23:23:05.314Z,101289.25
2022-12-24T23:28:07.333Z,101293.59
2022-12-24T23:33:08.800Z,101304.81
2022-12-24T23:38:10.246Z,101315.19
2022-12-24T23:43:11.734Z,101304.81
2022-12-24T23:48:13.221Z,101312.59
2022-12-24T23:53:15.889Z,101322.09
2022-12-24T23:58:17.414Z,101335.94
